createdAt,value
2022-11-19T00:01:53.869Z,4.74
2022-11-19T00:04:23.495Z,4.70
2022-11-19T00:06:53.031Z,4.67
2022-11-19T00:09:22.367Z,4.71
2022-11-19T00:12:09.808Z,4.75
2022-11-19T00:14:39.791Z,4.67
2022-11-19T00:17:09.177Z,4.61
2022-11-19T00:19:38.637Z,4.57
2022-11-19T00:22:07.940Z,4.60
2022-11-19T00:24:37.251Z,4.52
2022-11-19T00:27:06.933Z,4.60
2022-11-19T00:29:36.588Z,4.42
2022-11-19T00:32:06.292Z,4.46
2022-11-19T00:34:35.529Z,4.46
2022-11-19T00:37:04.806Z,4.53
2022-11-19T00:39:34.012Z,4.51
2022-11-19T00:42:03.385Z,4.52
2022-11-19T00:44:37.008Z,4.56
2022-11-19T00:47:03.933Z,4.51
2022-11-19T00:49:33.370Z,4.48
2022-11-19T00:52:02.734Z,4.51
2022-11-19T00:54:32.079Z,4.45
2022-11-19T00:57:01.768Z,4.50
2022-11-19T00:59:31.173Z,4.37
2022-11-19T01:02:00.477Z,4.37
2022-11-19T01:04:29.850Z,4.43
2022-11-19T01:06:59.433Z,4.43
2022-11-19T01:09:29.655Z,4.39
2022-11-19T01:11:59.082Z,4.18
2022-11-19T01:14:28.578Z,4.23
2022-11-19T01:16:57.928Z,4.23
2022-11-19T01:19:27.252Z,4.24
2022-11-19T01:21:56.504Z,4.26
2022-11-19T01:24:25.815Z,4.21
2022-11-19T01:26:55.200Z,4.17
2022-11-19T01:29:24.451Z,4.15
2022-11-19T01:31:53.695Z,4.09
2022-11-19T01:34:23.207Z,4.09
2022-11-19T01:36:52.652Z,4.06
2022-11-19T01:39:22.076Z,4.05
2022-11-19T01:41:51.724Z,4.05
2022-11-19T01:44:50.143Z,4.07
2022-11-19T01:47:19.434Z,3.96
2022-11-19T01:49:48.827Z,3.81
2022-11-19T01:52:18.310Z,3.90
2022-11-19T01:54:49.605Z,3.80
2022-11-19T01:57:19.719Z,3.81
2022-11-19T01:59:51.360Z,3.78
2022-11-19T02:02:22.769Z,3.65
2022-11-19T02:04:52.508Z,3.62
2022-11-19T02:07:24.782Z,3.62
2022-11-19T02:09:54.111Z,3.61
2022-11-19T02:12:41.475Z,3.57
2022-11-19T02:15:35.059Z,3.45
2022-11-19T02:18:32.059Z,3.48
2022-11-19T02:21:04.491Z,3.45
2022-11-19T02:23:52.242Z,3.35
2022-11-19T02:26:47.001Z,3.35
2022-11-19T02:29:34.334Z,3.32
2022-11-19T02:32:21.624Z,3.35
2022-11-19T02:34:59.070Z,3.33
2022-11-19T02:37:54.100Z,3.32
2022-11-19T02:40:41.550Z,3.25
2022-11-19T02:43:37.223Z,3.25
2022-11-19T02:46:16.565Z,3.13
2022-11-19T02:48:48.348Z,3.18
2022-11-19T02:51:19.324Z,3.09
2022-11-19T02:53:49.579Z,3.11
2022-11-19T02:56:47.885Z,3.16
2022-11-19T02:59:37.395Z,3.10
2022-11-19T03:02:26.268Z,2.96
2022-11-19T03:04:56.989Z,2.98
2022-11-19T03:07:26.301Z,2.89
2022-11-19T03:09:58.442Z,2.95
2022-11-19T03:12:31.043Z,3.04
2022-11-19T03:15:22.482Z,3.03
2022-11-19T03:18:02.853Z,2.96
2022-11-19T03:20:35.488Z,2.94
2022-11-19T03:23:13.237Z,2.94
2022-11-19T03:25:57.821Z,2.79
2022-11-19T03:28:30.075Z,2.78
2022-11-19T03:31:01.088Z,2.68
2022-11-19T03:33:32.617Z,2.66
2022-11-19T03:36:14.401Z,2.60
2022-11-19T03:38:46.260Z,2.60
2022-11-19T03:41:18.138Z,2.60
2022-11-19T03:43:50.554Z,2.56
2022-11-19T03:46:21.545Z,2.56
2022-11-19T03:48:52.539Z,2.44
2022-11-19T03:51:25.202Z,2.46
2022-11-19T03:53:54.665Z,2.41
2022-11-19T03:56:25.625Z,2.52
2022-11-19T03:58:55.050Z,2.43
2022-11-19T04:01:24.433Z,2.47
2022-11-19T04:04:11.692Z,2.50
2022-11-19T04:06:41.157Z,2.38
2022-11-19T04:09:10.403Z,2.39
2022-11-19T04:11:39.629Z,2.37
2022-11-19T04:14:08.900Z,2.36
2022-11-19T04:16:38.104Z,2.37
2022-11-19T04:19:07.671Z,2.32
2022-11-19T04:21:37.065Z,2.34
2022-11-19T04:24:07.330Z,2.33
2022-11-19T04:26:36.716Z,2.37
2022-11-19T04:29:06.171Z,2.37
2022-11-19T04:31:35.528Z,2.32
2022-11-19T04:34:04.928Z,2.35
2022-11-19T04:36:34.262Z,2.39
2022-11-19T04:39:03.603Z,2.33
2022-11-19T04:41:32.786Z,2.32
2022-11-19T04:44:02.210Z,2.35
2022-11-19T04:46:31.757Z,2.28
2022-11-19T04:49:01.004Z,2.26
2022-11-19T04:51:30.213Z,2.20
2022-11-19T04:53:59.464Z,2.20
2022-11-19T04:56:28.775Z,2.24
2022-11-19T04:58:58.068Z,2.10
2022-11-19T05:01:27.532Z,2.07
2022-11-19T05:03:56.924Z,2.07
2022-11-19T05:06:26.362Z,2.06
2022-11-19T05:08:55.584Z,1.98
2022-11-19T05:11:24.839Z,1.96
2022-11-19T05:13:57.193Z,1.98
2022-11-19T05:16:26.582Z,2.04
2022-11-19T05:18:55.816Z,2.01
2022-11-19T05:21:25.131Z,1.98
2022-11-19T05:23:54.362Z,2.05
2022-11-19T05:26:23.613Z,1.91
2022-11-19T05:28:52.916Z,1.90
2022-11-19T05:31:22.139Z,1.90
2022-11-19T05:33:51.473Z,1.87
2022-11-19T05:36:20.709Z,1.82
2022-11-19T05:38:50.050Z,1.78
2022-11-19T05:41:19.416Z,1.75
2022-11-19T05:43:48.633Z,1.71
2022-11-19T05:46:17.866Z,1.77
2022-11-19T05:48:47.706Z,1.76
2022-11-19T05:51:17.801Z,1.71
2022-11-19T05:53:47.067Z,1.63
2022-11-19T05:56:16.386Z,1.62
2022-11-19T05:58:45.619Z,1.56
2022-11-19T06:01:15.671Z,1.59
2022-11-19T06:03:45.060Z,1.65
2022-11-19T06:06:14.299Z,1.59
2022-11-19T06:08:43.722Z,1.60
2022-11-19T06:11:14.716Z,1.58
2022-11-19T06:13:43.911Z,1.55
2022-11-19T06:16:13.138Z,1.57
2022-11-19T06:18:42.390Z,1.54
2022-11-19T06:21:12.406Z,1.48
2022-11-19T06:23:41.864Z,1.44
2022-11-19T06:26:11.778Z,1.45
2022-11-19T06:28:40.982Z,1.45
2022-11-19T06:31:10.289Z,1.51
2022-11-19T06:33:39.725Z,1.48
2022-11-19T06:36:09.789Z,1.38
2022-11-19T06:38:39.191Z,1.40
2022-11-19T06:41:08.836Z,1.27
2022-11-19T06:43:38.115Z,1.28
2022-11-19T06:46:08.153Z,1.35
2022-11-19T06:48:37.906Z,1.29
2022-11-19T06:51:07.483Z,1.26
2022-11-19T06:53:37.205Z,1.19
2022-11-19T06:56:07.887Z,1.24
2022-11-19T06:58:37.178Z,1.20
2022-11-19T07:01:06.534Z,1.22
2022-11-19T07:03:35.932Z,1.18
2022-11-19T07:06:06.767Z,1.10
2022-11-19T07:08:37.783Z,1.08
2022-11-19T07:11:25.675Z,1.21
2022-11-19T07:13:59.797Z,1.14
2022-11-19T07:16:34.804Z,1.15
2022-11-19T07:19:06.168Z,1.05
2022-11-19T07:21:35.720Z,1.12
2022-11-19T07:24:07.687Z,1.06
2022-11-19T07:26:37.432Z,1.07
2022-11-19T07:29:08.793Z,1.14
2022-11-19T07:31:38.204Z,1.15
2022-11-19T07:34:08.669Z,1.16
2022-11-19T07:36:38.632Z,1.10
2022-11-19T07:39:08.057Z,1.13
2022-11-19T07:41:54.957Z,1.10
2022-11-19T07:44:24.218Z,1.07
2022-11-19T07:46:53.764Z,1.06
2022-11-19T07:49:23.429Z,1.02
2022-11-19T07:51:53.560Z,1.01
2022-11-19T07:54:22.790Z,0.92
2022-11-19T07:56:52.365Z,0.97
2022-11-19T07:59:22.126Z,0.99
2022-11-19T08:01:51.693Z,1.03
2022-11-19T08:04:21.501Z,1.13
2022-11-19T08:06:50.714Z,1.08
2022-11-19T08:09:20.742Z,1.18
2022-11-19T08:11:50.302Z,1.15
2022-11-19T08:14:19.579Z,1.16
2022-11-19T08:17:06.626Z,1.20
2022-11-19T08:19:36.543Z,1.23
2022-11-19T08:22:05.762Z,1.18
2022-11-19T08:24:35.219Z,1.16
2022-11-19T08:27:05.534Z,1.17
2022-11-19T08:29:34.948Z,1.24
2022-11-19T08:32:04.249Z,1.26
2022-11-19T08:34:34.401Z,1.25
2022-11-19T08:37:03.778Z,1.16
2022-11-19T08:39:33.108Z,1.14
2022-11-19T08:42:20.670Z,1.15
2022-11-19T08:44:50.016Z,1.18
2022-11-19T08:47:19.467Z,1.09
2022-11-19T08:49:48.701Z,1.17
2022-11-19T08:52:18.000Z,1.15
2022-11-19T08:54:47.227Z,1.06
2022-11-19T08:57:16.703Z,1.04
2022-11-19T08:59:45.984Z,1.15
2022-11-19T09:02:15.405Z,1.17
2022-11-19T09:04:44.860Z,1.17
2022-11-19T09:07:14.351Z,1.20
2022-11-19T09:09:44.337Z,1.25
2022-11-19T09:12:13.750Z,1.13
2022-11-19T09:14:43.110Z,1.09
2022-11-19T09:17:12.545Z,1.20
2022-11-19T09:19:41.759Z,1.09
2022-11-19T09:22:11.109Z,1.01
2022-11-19T09:24:40.345Z,1.10
2022-11-19T09:27:09.676Z,1.29
2022-11-19T09:29:38.907Z,1.35
2022-11-19T09:32:08.200Z,1.25
2022-11-19T09:34:39.141Z,1.43
2022-11-19T09:37:09.987Z,1.32
2022-11-19T09:39:39.366Z,1.27
2022-11-19T09:42:14.888Z,1.21
2022-11-19T09:45:05.687Z,1.29
2022-11-19T09:47:47.152Z,1.21
2022-11-19T09:50:24.808Z,1.17
2022-11-19T09:52:57.232Z,1.19
2022-11-19T09:55:37.868Z,1.30
2022-11-19T09:58:13.090Z,1.27
2022-11-19T10:00:42.420Z,1.23
2022-11-19T10:03:20.903Z,1.29
2022-11-19T10:06:17.463Z,1.35
2022-11-19T10:09:06.425Z,1.23
2022-11-19T10:11:44.943Z,1.29
2022-11-19T10:14:46.447Z,1.22
2022-11-19T10:17:21.765Z,1.23
2022-11-19T10:20:02.789Z,1.45
2022-11-19T10:22:40.371Z,1.42
2022-11-19T10:25:18.082Z,1.57
2022-11-19T10:27:56.327Z,1.28
2022-11-19T10:30:27.436Z,1.39
2022-11-19T10:33:08.933Z,1.32
2022-11-19T10:35:41.555Z,1.35
2022-11-19T10:38:22.902Z,1.38
2022-11-19T10:40:55.722Z,1.37
2022-11-19T10:43:45.291Z,1.42
2022-11-19T10:46:16.218Z,1.22
2022-11-19T10:48:47.500Z,1.26
2022-11-19T10:51:31.872Z,1.24
2022-11-19T10:54:03.709Z,1.13
2022-11-19T10:56:43.734Z,1.13
2022-11-19T10:59:19.058Z,1.22
2022-11-19T11:01:51.266Z,1.17
2022-11-19T11:04:25.509Z,1.15
2022-11-19T11:06:57.549Z,1.04
2022-11-19T11:09:37.465Z,0.97
2022-11-19T11:12:30.169Z,0.73
2022-11-19T11:15:11.436Z,0.91
2022-11-19T11:17:42.505Z,1.05
2022-11-19T11:20:21.155Z,0.91
2022-11-19T11:22:52.038Z,0.83
2022-11-19T11:25:26.812Z,0.92
2022-11-19T11:28:07.476Z,1.03
2022-11-19T11:30:36.970Z,0.97
2022-11-19T11:33:28.922Z,1.05
2022-11-19T11:36:01.748Z,1.14
2022-11-19T11:38:31.349Z,0.97
2022-11-19T11:42:01.991Z,0.83
2022-11-19T11:43:43.652Z,0.94
2022-11-19T11:46:13.456Z,0.92
2022-11-19T11:48:48.038Z,0.72
2022-11-19T11:51:27.955Z,0.86
2022-11-19T11:54:19.664Z,0.94
2022-11-19T11:56:49.149Z,0.85
2022-11-19T11:59:30.722Z,0.93
2022-11-19T12:02:08.916Z,0.82
2022-11-19T12:04:38.321Z,0.85
2022-11-19T12:07:13.294Z,0.76
2022-11-19T12:09:59.684Z,0.69
2022-11-19T12:12:43.741Z,0.89
2022-11-19T12:15:27.397Z,0.70
2022-11-19T12:18:17.955Z,0.69
2022-11-19T12:21:11.433Z,0.81
2022-11-19T12:24:04.974Z,0.78
2022-11-19T12:27:04.824Z,0.74
2022-11-19T12:29:53.615Z,0.84
2022-11-19T12:32:31.692Z,0.88
2022-11-19T12:35:08.166Z,0.74
2022-11-19T12:38:01.643Z,0.89
2022-11-19T12:40:59.417Z,0.74
2022-11-19T12:43:40.786Z,0.90
2022-11-19T12:46:16.566Z,0.91
2022-11-19T12:49:03.662Z,0.95
2022-11-19T12:51:44.988Z,0.92
2022-11-19T12:54:21.400Z,0.96
2022-11-19T12:57:03.728Z,0.92
2022-11-19T12:59:42.229Z,0.94
2022-11-19T13:02:36.429Z,0.94
2022-11-19T13:05:17.834Z,1.02
2022-11-19T13:07:59.717Z,1.02
2022-11-19T13:10:32.324Z,0.92
2022-11-19T13:13:04.262Z,0.94
2022-11-19T13:15:36.482Z,1.05
2022-11-19T13:18:09.394Z,1.05
2022-11-19T13:20:53.702Z,1.15
2022-11-19T13:23:26.309Z,1.07
2022-11-19T13:26:08.257Z,1.22
2022-11-19T13:28:40.851Z,1.37
2022-11-19T13:31:14.073Z,1.33
2022-11-19T13:33:52.215Z,1.38
2022-11-19T13:36:43.030Z,1.18
2022-11-19T13:39:15.665Z,1.22
2022-11-19T13:42:10.192Z,1.18
2022-11-19T13:44:41.304Z,1.18
2022-11-19T13:47:25.251Z,1.16
2022-11-19T13:49:57.828Z,1.13
2022-11-19T13:52:32.862Z,1.09
2022-11-19T13:55:02.573Z,1.16
2022-11-19T13:57:38.012Z,1.19
2022-11-19T14:00:10.917Z,1.21
2022-11-19T14:03:21.367Z,1.21
2022-11-19T14:06:10.597Z,1.25
2022-11-19T14:08:51.623Z,1.34
2022-11-19T14:11:50.086Z,1.35
2022-11-19T14:14:48.857Z,1.35
2022-11-19T14:18:04.679Z,1.43
2022-11-19T14:20:57.366Z,1.35
2022-11-19T14:24:04.255Z,1.30
2022-11-19T14:26:51.177Z,1.41
2022-11-19T14:29:23.246Z,1.48
2022-11-19T14:32:07.724Z,1.43
2022-11-19T14:34:42.038Z,1.38
2022-11-19T14:37:19.434Z,1.39
2022-11-19T14:39:54.683Z,1.37
2022-11-19T14:42:24.087Z,1.36
2022-11-19T14:45:05.536Z,1.40
2022-11-19T14:47:39.814Z,1.38
2022-11-19T14:50:12.231Z,1.43
2022-11-19T14:52:55.586Z,1.34
2022-11-19T14:55:27.467Z,1.34
2022-11-19T14:58:05.570Z,1.40
2022-11-19T15:00:42.159Z,1.43
2022-11-19T15:03:20.858Z,1.36
2022-11-19T15:05:50.463Z,1.35
2022-11-19T15:08:22.967Z,1.41
2022-11-19T15:11:05.382Z,1.42
2022-11-19T15:13:41.927Z,1.42
2022-11-19T15:16:16.797Z,1.40
2022-11-19T15:18:49.233Z,1.39
2022-11-19T15:24:24.531Z,1.41
2022-11-19T15:27:06.335Z,1.42
2022-11-19T15:30:09.378Z,1.38
2022-11-19T15:32:55.980Z,1.39
2022-11-19T15:35:44.476Z,1.28
2022-11-19T15:38:20.212Z,1.30
2022-11-19T15:40:49.438Z,1.32
2022-11-19T15:43:39.790Z,1.35
2022-11-19T15:46:11.334Z,1.41
2022-11-19T15:49:04.603Z,1.40
2022-11-19T15:51:41.725Z,1.38
2022-11-19T15:54:12.402Z,1.35
2022-11-19T15:56:50.902Z,1.36
2022-11-19T15:59:21.504Z,1.36
2022-11-19T16:02:04.958Z,1.39
2022-11-19T16:04:36.511Z,1.39
2022-11-19T16:07:10.398Z,1.38
2022-11-19T16:09:39.758Z,1.37
2022-11-19T16:12:29.773Z,1.36
2022-11-19T16:15:16.999Z,1.39
2022-11-19T16:17:48.616Z,1.38
2022-11-19T16:20:21.154Z,1.41
2022-11-19T16:22:56.255Z,1.39
2022-11-19T16:25:40.255Z,1.38
2022-11-19T16:28:15.072Z,1.32
2022-11-19T16:30:51.990Z,1.40
2022-11-19T16:33:23.529Z,1.42
2022-11-19T16:35:54.303Z,1.46
2022-11-19T16:38:28.852Z,1.42
2022-11-19T16:41:16.112Z,1.40
2022-11-19T16:43:48.233Z,1.47
2022-11-19T16:46:20.483Z,1.44
2022-11-19T16:48:53.055Z,1.47
2022-11-19T16:51:42.237Z,1.44
2022-11-19T16:54:12.339Z,1.51
2022-11-19T16:56:44.053Z,1.45
2022-11-19T16:59:26.659Z,1.47
2022-11-19T17:01:59.743Z,1.48
2022-11-19T17:04:31.383Z,1.51
2022-11-19T17:07:01.002Z,1.48
2022-11-19T17:09:36.261Z,1.53
2022-11-19T17:12:17.624Z,1.52
2022-11-19T17:14:49.916Z,1.48
2022-11-19T17:17:29.665Z,1.47
2022-11-19T17:19:59.519Z,1.51
2022-11-19T17:22:36.199Z,1.55
2022-11-19T17:25:06.615Z,1.50
2022-11-19T17:27:38.329Z,1.52
2022-11-19T17:30:15.241Z,1.53
2022-11-19T17:32:47.074Z,1.53
2022-11-19T17:35:41.175Z,1.54
2022-11-19T17:38:16.060Z,1.59
2022-11-19T17:40:56.475Z,1.54
2022-11-19T17:43:57.108Z,1.58
2022-11-19T17:46:29.338Z,1.52
2022-11-19T17:48:59.033Z,1.44
2022-11-19T17:51:28.319Z,1.41
2022-11-19T17:53:58.181Z,1.43
2022-11-19T17:56:29.525Z,1.37
2022-11-19T17:58:59.730Z,1.36
2022-11-19T18:01:29.174Z,1.29
2022-11-19T18:03:59.224Z,1.38
2022-11-19T18:06:28.448Z,1.38
2022-11-19T18:08:57.671Z,1.39
2022-11-19T18:11:27.456Z,1.35
2022-11-19T18:13:57.904Z,1.40
2022-11-19T18:16:28.901Z,1.35
2022-11-19T18:18:58.254Z,1.31
2022-11-19T18:21:27.777Z,1.23
2022-11-19T18:23:57.089Z,1.17
2022-11-19T18:26:26.426Z,1.17
2022-11-19T18:28:56.691Z,1.24
2022-11-19T18:31:27.551Z,1.13
2022-11-19T18:33:57.940Z,1.10
2022-11-19T18:36:27.553Z,1.06
2022-11-19T18:38:56.986Z,1.13
2022-11-19T18:41:26.387Z,1.14
2022-11-19T18:44:13.475Z,1.12
2022-11-19T18:46:42.840Z,1.11
2022-11-19T18:49:12.175Z,1.06
2022-11-19T18:51:43.303Z,1.02
2022-11-19T18:54:13.276Z,1.05
2022-11-19T18:56:42.569Z,0.98
2022-11-19T18:59:16.180Z,0.97
2022-11-19T19:01:45.556Z,0.91
2022-11-19T19:04:14.985Z,0.92
2022-11-19T19:06:44.534Z,0.89
2022-11-19T19:09:15.607Z,0.93
2022-11-19T19:12:02.861Z,0.95
2022-11-19T19:14:32.156Z,0.95
2022-11-19T19:17:01.499Z,0.96
2022-11-19T19:19:31.384Z,0.88
2022-11-19T19:22:00.964Z,0.88
2022-11-19T19:24:31.461Z,0.80
2022-11-19T19:27:02.034Z,0.79
2022-11-19T19:29:31.596Z,0.70
2022-11-19T19:32:01.580Z,0.74
2022-11-19T19:34:30.961Z,0.77
2022-11-19T19:37:00.218Z,0.70
2022-11-19T19:39:29.600Z,0.65
2022-11-19T19:41:58.871Z,0.65
2022-11-19T19:44:28.227Z,0.53
2022-11-19T19:46:57.685Z,0.52
2022-11-19T19:49:28.569Z,0.54
2022-11-19T19:51:58.325Z,0.44
2022-11-19T19:54:27.835Z,0.50
2022-11-19T19:56:57.090Z,0.54
2022-11-19T19:59:26.383Z,0.48
2022-11-19T20:01:55.757Z,0.51
2022-11-19T20:04:25.216Z,0.49
2022-11-19T20:06:56.273Z,0.45
2022-11-19T20:09:25.957Z,0.43
2022-11-19T20:11:55.485Z,0.41
2022-11-19T20:14:24.859Z,0.37
2022-11-19T20:16:54.206Z,0.29
2022-11-19T20:19:24.004Z,0.28
2022-11-19T20:21:54.565Z,0.16
2022-11-19T20:24:23.843Z,0.05
2022-11-19T20:26:53.125Z,0.06
2022-11-19T20:29:23.977Z,-0.11
2022-11-19T20:31:53.391Z,-0.08
2022-11-19T20:34:22.846Z,-0.10
2022-11-19T20:36:52.214Z,-0.15
2022-11-19T20:39:22.031Z,-0.19
2022-11-19T20:42:09.567Z,-0.26
2022-11-19T20:44:39.067Z,-0.33
2022-11-19T20:47:08.366Z,-0.33
2022-11-19T20:49:39.694Z,-0.45
2022-11-19T20:52:10.827Z,-0.45
2022-11-19T20:54:42.039Z,-0.57
2022-11-19T20:57:11.360Z,-0.69
2022-11-19T20:59:40.656Z,-0.80
2022-11-19T21:02:12.331Z,-0.76
2022-11-19T21:04:41.664Z,-0.75
2022-11-19T21:07:11.182Z,-0.81
2022-11-19T21:09:40.815Z,-0.91
2022-11-19T21:12:12.986Z,-0.93
2022-11-19T21:14:42.536Z,-1.04
2022-11-19T21:17:11.825Z,-1.10
2022-11-19T21:19:41.173Z,-1.14
2022-11-19T21:22:10.547Z,-1.30
2022-11-19T21:24:40.198Z,-1.40
2022-11-19T21:27:09.531Z,-1.37
2022-11-19T21:29:38.904Z,-1.43
2022-11-19T21:32:08.398Z,-1.49
2022-11-19T21:34:39.379Z,-1.43
2022-11-19T21:37:08.733Z,-1.46
2022-11-19T21:39:39.064Z,-1.50
2022-11-19T21:42:08.483Z,-1.52
2022-11-19T21:44:38.159Z,-1.52
2022-11-19T21:47:07.403Z,-1.48
2022-11-19T21:49:36.761Z,-1.55
2022-11-19T21:52:05.985Z,-1.67
2022-11-19T21:54:35.564Z,-1.76
2022-11-19T21:57:04.841Z,-1.83
2022-11-19T21:59:34.376Z,-1.76
2022-11-19T22:02:03.704Z,-1.85
2022-11-19T22:04:32.997Z,-1.87
2022-11-19T22:07:02.737Z,-1.92
2022-11-19T22:09:32.075Z,-1.99
2022-11-19T22:12:10.074Z,-1.96
2022-11-19T22:14:39.459Z,-1.81
2022-11-19T22:17:08.974Z,-1.88
2022-11-19T22:19:38.567Z,-1.76
2022-11-19T22:22:07.850Z,-1.75
2022-11-19T22:24:37.396Z,-1.76
2022-11-19T22:27:06.655Z,-1.76
2022-11-19T22:29:36.140Z,-1.69
2022-11-19T22:32:05.963Z,-1.67
2022-11-19T22:34:35.359Z,-1.59
2022-11-19T22:37:06.694Z,-1.52
2022-11-19T22:39:35.963Z,-1.38
2022-11-19T22:42:05.637Z,-1.32
2022-11-19T22:44:35.022Z,-1.38
2022-11-19T22:47:04.454Z,-1.23
2022-11-19T22:49:33.832Z,-1.14
2022-11-19T22:52:03.084Z,-1.06
2022-11-19T22:54:35.066Z,-1.08
2022-11-19T22:57:03.363Z,-1.10
2022-11-19T22:59:32.771Z,-1.14
2022-11-19T23:02:03.252Z,-1.09
2022-11-19T23:04:32.471Z,-1.18
2022-11-19T23:07:01.939Z,-1.32
2022-11-19T23:09:31.167Z,-1.56
2022-11-19T23:12:18.215Z,-1.43
2022-11-19T23:14:47.753Z,-1.57
2022-11-19T23:17:17.223Z,-1.62
2022-11-19T23:19:46.826Z,-1.72
2022-11-19T23:22:16.258Z,-1.83
2022-11-19T23:24:45.532Z,-1.92
2022-11-19T23:27:20.792Z,-1.92
2022-11-19T23:29:45.889Z,-1.95
2022-11-19T23:32:15.214Z,-1.93
2022-11-19T23:34:45.100Z,-1.92
2022-11-19T23:37:14.711Z,-2.07
2022-11-19T23:39:44.013Z,-2.20
2022-11-19T23:42:13.530Z,-2.26
2022-11-19T23:44:42.750Z,-2.30
2022-11-19T23:47:12.203Z,-2.35
2022-11-19T23:49:41.415Z,-2.52
2022-11-19T23:52:10.792Z,-2.56
2022-11-19T23:54:40.009Z,-2.47
2022-11-19T23:57:09.362Z,-2.39
2022-11-19T23:59:38.665Z,-2.45
